createdAt,value
2023-04-27T00:00:02.020Z,22.7
2023-04-27T00:05:01.856Z,22.6
2023-04-27T00:10:01.044Z,22.7
2023-04-27T00:15:01.442Z,22.7
2023-04-27T00:20:02.394Z,22.6
2023-04-27T00:25:01.248Z,22.6
2023-04-27T00:30:02.224Z,22.6
2023-04-27T00:35:01.479Z,22.5
2023-04-27T00:40:01.309Z,22.3
2023-04-27T00:45:01.330Z,22.2
2023-04-27T00:50:01.090Z,22.2
2023-04-27T00:55:01.039Z,22.1
2023-04-27T01:00:02.067Z,22.1
2023-04-27T01:05:01.310Z,22.2
2023-04-27T01:10:03.612Z,22.2
2023-04-27T01:15:01.448Z,22.2
2023-04-27T01:20:02.297Z,22.3
2023-04-27T01:25:01.295Z,22.3
2023-04-27T01:30:01.577Z,22.3
2023-04-27T01:35:00.262Z,22.3
2023-04-27T01:40:01.226Z,22.3
2023-04-27T01:45:01.290Z,22.4
2023-04-27T01:50:01.511Z,22.4
2023-04-27T01:55:01.000Z,22.4
2023-04-27T02:00:01.300Z,22.4
2023-04-27T02:05:01.231Z,22.4
2023-04-27T02:10:01.497Z,22.5
2023-04-27T02:15:01.877Z,22.4
2023-04-27T02:20:01.054Z,22.5
2023-04-27T02:25:03.154Z,22.5
2023-04-27T02:30:01.596Z,22.5
2023-04-27T02:35:01.523Z,22.5
2023-04-27T02:40:02.099Z,22.5
2023-04-27T02:45:01.119Z,22.5
2023-04-27T02:50:01.380Z,22.5
2023-04-27T02:55:02.141Z,22.5
2023-04-27T03:00:02.396Z,22.5
2023-04-27T03:05:01.029Z,22.5
2023-04-27T03:10:01.434Z,22.5
2023-04-27T03:15:00.996Z,22.5
2023-04-27T03:20:01.922Z,22.5
2023-04-27T03:25:00.290Z,22.5
2023-04-27T03:30:01.441Z,22.5
2023-04-27T03:35:01.241Z,22.5
2023-04-27T03:40:02.067Z,22.5
2023-04-27T03:45:01.239Z,22.5
2023-04-27T03:50:01.068Z,22.5
2023-04-27T03:55:01.092Z,22.5
2023-04-27T04:00:01.280Z,22.5
2023-04-27T04:05:00.275Z,22.5
2023-04-27T04:10:01.053Z,22.5
2023-04-27T04:15:01.000Z,22.6
2023-04-27T04:20:01.269Z,22.6
2023-04-27T04:25:01.023Z,22.6
2023-04-27T04:30:02.323Z,22.6
2023-04-27T04:35:01.798Z,22.7
2023-04-27T04:40:01.899Z,22.7
2023-04-27T04:45:01.062Z,22.7
2023-04-27T04:50:02.513Z,22.6
2023-04-27T04:55:01.504Z,22.7
2023-04-27T05:00:01.338Z,22.7
2023-04-27T05:05:01.168Z,22.7
2023-04-27T05:10:01.551Z,22.7
2023-04-27T05:15:00.967Z,22.8
2023-04-27T05:20:04.088Z,22.7
2023-04-27T05:25:01.042Z,22.8
2023-04-27T05:30:01.556Z,22.8
2023-04-27T05:35:01.313Z,22.7
2023-04-27T05:40:01.077Z,22.7
2023-04-27T05:45:01.250Z,22.8
2023-04-27T05:50:01.092Z,22.8
2023-04-27T05:55:00.974Z,22.7
2023-04-27T06:00:01.052Z,22.7
2023-04-27T06:05:01.250Z,22.8
2023-04-27T06:10:02.357Z,22.8
2023-04-27T06:15:01.747Z,22.8
2023-04-27T06:20:03.491Z,22.8
2023-04-27T06:25:01.186Z,22.8
2023-04-27T06:30:00.977Z,22.8
2023-04-27T06:35:02.999Z,22.8
2023-04-27T06:40:01.271Z,22.8
2023-04-27T06:45:01.484Z,22.8
2023-04-27T06:50:03.509Z,22.7
2023-04-27T06:55:03.680Z,22.6
2023-04-27T07:00:01.331Z,22.5
2023-04-27T07:05:02.508Z,22.3
2023-04-27T07:10:01.330Z,22.1
2023-04-27T07:15:00.280Z,22.0
2023-04-27T07:20:02.461Z,21.8
2023-04-27T07:25:01.023Z,21.7
2023-04-27T07:35:01.461Z,21.4
2023-04-27T07:40:04.976Z,21.2
2023-04-27T07:45:01.775Z,21.1
2023-04-27T07:50:01.192Z,21.0
2023-04-27T07:55:01.016Z,20.9
2023-04-27T08:00:02.653Z,20.8
2023-04-27T08:05:02.775Z,20.8
2023-04-27T08:10:01.519Z,20.7
2023-04-27T08:15:02.782Z,20.7
2023-04-27T08:20:01.086Z,20.6
2023-04-27T08:25:01.592Z,20.5
2023-04-27T08:30:01.375Z,20.6
2023-04-27T08:35:03.604Z,20.7
2023-04-27T08:40:01.059Z,20.8
2023-04-27T08:45:01.386Z,21.0
2023-04-27T08:50:01.439Z,21.1
2023-04-27T08:55:01.050Z,21.2
2023-04-27T09:00:01.101Z,21.3
2023-04-27T09:05:01.316Z,21.5
2023-04-27T09:10:01.074Z,21.5
2023-04-27T09:15:01.068Z,21.6
2023-04-27T09:20:01.286Z,21.8
2023-04-27T09:25:01.703Z,21.9
2023-04-27T09:30:02.461Z,21.9
2023-04-27T09:35:01.223Z,22.0
2023-04-27T09:40:01.982Z,22.0
2023-04-27T09:45:01.187Z,22.1
2023-04-27T09:50:01.280Z,22.1
2023-04-27T09:55:01.864Z,22.2
2023-04-27T10:00:01.074Z,22.2
2023-04-27T10:05:01.068Z,22.3
2023-04-27T10:10:00.352Z,22.4
2023-04-27T10:15:02.032Z,22.4
2023-04-27T10:20:02.197Z,22.4
2023-04-27T10:25:02.058Z,22.5
2023-04-27T10:30:02.989Z,22.5
2023-04-27T10:35:01.216Z,22.5
2023-04-27T10:40:04.102Z,22.5
2023-04-27T10:45:01.380Z,22.6
2023-04-27T10:50:02.249Z,22.6
2023-04-27T10:55:02.463Z,22.7
2023-04-27T11:00:01.501Z,22.7
2023-04-27T11:05:01.123Z,22.7
2023-04-27T11:10:01.303Z,22.7
2023-04-27T11:15:01.317Z,22.7
2023-04-27T11:20:01.243Z,22.8
2023-04-27T11:25:01.905Z,22.8
2023-04-27T11:30:01.257Z,22.8
2023-04-27T11:35:01.275Z,22.8
2023-04-27T11:40:01.032Z,22.8
2023-04-27T11:45:02.068Z,22.8
2023-04-27T11:50:01.085Z,22.9
2023-04-27T11:55:01.311Z,22.9
2023-04-27T12:00:01.304Z,22.9
2023-04-27T12:05:01.582Z,22.8
2023-04-27T12:10:01.368Z,22.9
2023-04-27T12:15:01.128Z,22.9
2023-04-27T12:20:01.856Z,22.9
2023-04-27T12:25:01.064Z,22.9
2023-04-27T12:30:01.439Z,22.9
2023-04-27T12:35:02.438Z,22.9
2023-04-27T12:40:01.238Z,22.9
2023-04-27T12:45:01.317Z,22.9
2023-04-27T12:50:01.066Z,23.0
2023-04-27T12:55:00.269Z,23.0
2023-04-27T13:00:02.776Z,23.0
2023-04-27T13:05:01.642Z,23.0
2023-04-27T13:10:01.340Z,23.0
2023-04-27T13:15:03.972Z,23.0
2023-04-27T13:20:01.443Z,23.0
2023-04-27T13:25:01.669Z,23.0
2023-04-27T13:30:01.300Z,23.0
2023-04-27T13:35:01.463Z,23.0
2023-04-27T13:40:01.500Z,23.0
2023-04-27T13:45:01.030Z,22.9
2023-04-27T13:50:02.834Z,22.8
2023-04-27T13:55:00.978Z,22.8
2023-04-27T14:00:01.051Z,22.6
2023-04-27T14:05:01.624Z,22.6
2023-04-27T14:10:02.056Z,22.6
2023-04-27T14:15:01.292Z,22.6
2023-04-27T14:20:04.334Z,22.6
2023-04-27T14:25:03.619Z,22.7
2023-04-27T14:30:01.452Z,22.7
2023-04-27T14:35:01.382Z,22.8
2023-04-27T14:40:02.565Z,22.8
2023-04-27T14:45:01.619Z,22.8
2023-04-27T14:50:03.565Z,22.9
2023-04-27T14:55:01.254Z,22.9
2023-04-27T15:00:01.296Z,22.9
2023-04-27T15:05:01.805Z,22.9
2023-04-27T15:10:00.284Z,23.0
2023-04-27T15:15:01.111Z,23.0
2023-04-27T15:20:01.147Z,23.0
2023-04-27T15:25:01.494Z,23.0
2023-04-27T15:30:01.466Z,23.1
2023-04-27T15:35:01.924Z,23.1
2023-04-27T15:40:03.141Z,23.1
2023-04-27T15:45:01.879Z,23.2
2023-04-27T15:50:01.502Z,23.2
2023-04-27T15:55:01.527Z,23.2
2023-04-27T16:00:01.373Z,23.2
2023-04-27T16:05:01.442Z,23.3
2023-04-27T16:10:01.237Z,23.3
2023-04-27T16:15:01.917Z,23.3
2023-04-27T16:20:00.352Z,23.4
2023-04-27T16:25:01.838Z,23.4
2023-04-27T16:30:01.936Z,23.5
2023-04-27T16:35:01.201Z,23.5
2023-04-27T16:40:01.180Z,23.5
2023-04-27T16:45:01.608Z,23.5
2023-04-27T16:50:01.096Z,23.6
2023-04-27T16:55:01.502Z,23.6
2023-04-27T17:00:02.519Z,23.6
2023-04-27T17:05:01.393Z,23.6
2023-04-27T17:10:02.286Z,23.7
2023-04-27T17:15:01.074Z,23.7
2023-04-27T17:25:00.314Z,23.7
2023-04-27T17:30:01.872Z,23.6
2023-04-27T17:35:01.884Z,23.7
2023-04-27T17:40:01.000Z,23.6
2023-04-27T17:45:00.294Z,23.6
2023-04-27T17:50:02.889Z,23.6
2023-04-27T17:55:01.866Z,23.6
2023-04-27T18:00:00.279Z,23.6
2023-04-27T18:05:03.836Z,23.6
2023-04-27T18:10:00.986Z,23.6
2023-04-27T18:15:03.539Z,23.7
2023-04-27T18:20:08.589Z,23.6
2023-04-27T18:25:01.031Z,23.6
2023-04-27T18:30:01.107Z,23.6
2023-04-27T18:35:01.281Z,23.6
2023-04-27T18:40:01.533Z,23.6
2023-04-27T18:45:00.906Z,23.6
2023-04-27T18:50:01.276Z,23.6
2023-04-27T18:55:01.017Z,23.5
2023-04-27T19:00:01.901Z,23.5
2023-04-27T19:05:11.919Z,23.5
2023-04-27T19:10:01.479Z,23.5
2023-04-27T19:15:01.794Z,23.5
2023-04-27T19:20:01.516Z,23.5
2023-04-27T19:25:01.178Z,23.5
2023-04-27T19:30:01.081Z,23.5
2023-04-27T19:35:01.867Z,23.5
2023-04-27T19:45:01.462Z,23.4
2023-04-27T19:50:00.900Z,23.4
2023-04-27T19:55:01.109Z,23.4
2023-04-27T20:00:01.107Z,23.4
2023-04-27T20:05:01.240Z,23.4
2023-04-27T20:10:02.104Z,23.2
2023-04-27T20:15:01.897Z,23.0
2023-04-27T20:20:01.562Z,22.7
2023-04-27T20:25:01.285Z,22.5
2023-04-27T20:30:01.338Z,22.1
2023-04-27T20:35:02.342Z,21.9
2023-04-27T20:40:02.101Z,21.7
2023-04-27T20:45:01.557Z,21.4
2023-04-27T20:50:02.509Z,21.2
2023-04-27T20:55:01.215Z,21.1
2023-04-27T21:00:01.001Z,21.2
2023-04-27T21:05:03.252Z,21.3
2023-04-27T21:10:01.056Z,21.5
2023-04-27T21:15:01.781Z,21.5
2023-04-27T21:20:04.545Z,21.7
2023-04-27T21:25:01.474Z,21.8
2023-04-27T21:30:00.268Z,21.9
2023-04-27T21:35:01.863Z,22.0
2023-04-27T21:40:02.173Z,22.0
2023-04-27T21:45:01.960Z,22.1
2023-04-27T21:50:01.851Z,22.2
2023-04-27T21:55:01.292Z,22.3
2023-04-27T22:00:01.399Z,22.3
2023-04-27T22:05:01.571Z,22.4
2023-04-27T22:10:00.975Z,22.4
2023-04-27T22:15:01.930Z,22.4
2023-04-27T22:20:02.039Z,22.5
2023-04-27T22:25:01.555Z,22.5
2023-04-27T22:30:01.256Z,22.5
2023-04-27T22:35:01.267Z,22.5
2023-04-27T22:40:01.100Z,22.6
2023-04-27T22:45:01.050Z,22.6
2023-04-27T22:50:01.827Z,22.6
2023-04-27T22:55:01.883Z,22.7
2023-04-27T23:00:01.505Z,22.7
2023-04-27T23:05:01.269Z,22.7
2023-04-27T23:10:01.252Z,22.7
2023-04-27T23:15:01.462Z,22.8
2023-04-27T23:20:01.164Z,22.7
2023-04-27T23:25:00.280Z,22.8
2023-04-27T23:30:03.067Z,22.8
2023-04-27T23:35:01.012Z,22.8
2023-04-27T23:40:01.070Z,22.8
2023-04-27T23:45:01.040Z,22.9
2023-04-27T23:50:01.486Z,22.8
2023-04-27T23:55:01.854Z,22.9
